sensor_id;sensor_type;location;lat;lon;timestamp;temperature;humidity
42095;DHT22;27753;55.724;37.612;2022-12-15T00:01:04;-2.20;99.90
42095;DHT22;27753;55.724;37.612;2022-12-15T00:03:49;-2.10;99.90
42095;DHT22;27753;55.724;37.612;2022-12-15T00:06:33;-2.10;99.90
42095;DHT22;27753;55.724;37.612;2022-12-15T00:09:18;-2.10;99.90
42095;DHT22;27753;55.724;37.612;2022-12-15T00:12:02;-2.10;99.90
42095;DHT22;27753;55.724;37.612;2022-12-15T00:14:46;-2.00;99.90
42095;DHT22;27753;55.724;37.612;2022-12-15T00:17:31;-2.00;99.90
42095;DHT22;27753;55.724;37.612;2022-12-15T00:20:15;-2.00;99.90
42095;DHT22;27753;55.724;37.612;2022-12-15T00:23:10;-2.00;99.90
42095;DHT22;27753;55.724;37.612;2022-12-15T00:25:55;-2.00;99.90
42095;DHT22;27753;55.724;37.612;2022-12-15T00:28:39;-2.00;99.90
42095;DHT22;27753;55.724;37.612;2022-12-15T00:31:24;-2.00;99.90
42095;DHT22;27753;55.724;37.612;2022-12-15T00:34:08;-2.00;99.90
42095;DHT22;27753;55.724;37.612;2022-12-15T00:36:53;-2.00;99.90
42095;DHT22;27753;55.724;37.612;2022-12-15T00:39:37;-2.00;99.90
42095;DHT22;27753;55.724;37.612;2022-12-15T00:42:05;-2.00;99.90
42095;DHT22;27753;55.724;37.612;2022-12-15T00:44:31;-2.00;99.90
42095;DHT22;27753;55.724;37.612;2022-12-15T00:46:57;-2.00;99.90
42095;DHT22;27753;55.724;37.612;2022-12-15T00:49:27;-1.90;99.90
42095;DHT22;27753;55.724;37.612;2022-12-15T00:52:12;-1.90;99.90
42095;DHT22;27753;55.724;37.612;2022-12-15T00:54:57;-1.90;99.90
42095;DHT22;27753;55.724;37.612;2022-12-15T00:57:42;-1.90;99.90
42095;DHT22;27753;55.724;37.612;2022-12-15T01:00:27;-1.90;99.90
42095;DHT22;27753;55.724;37.612;2022-12-15T01:03:20;-1.90;99.90
42095;DHT22;27753;55.724;37.612;2022-12-15T01:06:06;-2.00;99.90
42095;DHT22;27753;55.724;37.612;2022-12-15T01:08:50;-2.00;99.90
42095;DHT22;27753;55.724;37.612;2022-12-15T01:11:35;-2.00;99.90
42095;DHT22;27753;55.724;37.612;2022-12-15T01:14:20;-2.00;99.90
42095;DHT22;27753;55.724;37.612;2022-12-15T01:17:04;-2.00;99.90
42095;DHT22;27753;55.724;37.612;2022-12-15T01:19:48;-2.00;99.90
42095;DHT22;27753;55.724;37.612;2022-12-15T01:22:32;-2.00;99.90
42095;DHT22;27753;55.724;37.612;2022-12-15T01:24:58;-2.00;99.90
42095;DHT22;27753;55.724;37.612;2022-12-15T01:27:24;-2.00;99.90
42095;DHT22;27753;55.724;37.612;2022-12-15T01:29:50;-2.00;99.90
42095;DHT22;27753;55.724;37.612;2022-12-15T01:32:16;-2.00;99.90
42095;DHT22;27753;55.724;37.612;2022-12-15T01:34:41;-2.00;99.90
42095;DHT22;27753;55.724;37.612;2022-12-15T01:37:07;-2.00;99.90
42095;DHT22;27753;55.724;37.612;2022-12-15T01:39:33;-1.90;99.90
42095;DHT22;27753;55.724;37.612;2022-12-15T01:42:18;-1.90;99.90
42095;DHT22;27753;55.724;37.612;2022-12-15T01:44:49;-2.00;99.90
42095;DHT22;27753;55.724;37.612;2022-12-15T01:47:15;-2.00;99.90
42095;DHT22;27753;55.724;37.612;2022-12-15T01:49:41;-2.00;99.90
42095;DHT22;27753;55.724;37.612;2022-12-15T01:52:08;-2.00;99.90
42095;DHT22;27753;55.724;37.612;2022-12-15T01:54:55;-2.10;99.90
42095;DHT22;27753;55.724;37.612;2022-12-15T01:57:26;-2.10;99.90
42095;DHT22;27753;55.724;37.612;2022-12-15T01:59:56;-2.20;99.90
42095;DHT22;27753;55.724;37.612;2022-12-15T02:02:24;-2.20;99.90
42095;DHT22;27753;55.724;37.612;2022-12-15T02:04:53;-2.20;99.90
42095;DHT22;27753;55.724;37.612;2022-12-15T02:07:21;-2.30;99.90
42095;DHT22;27753;55.724;37.612;2022-12-15T02:09:49;-2.30;99.90
42095;DHT22;27753;55.724;37.612;2022-12-15T02:12:37;-2.40;99.90
42095;DHT22;27753;55.724;37.612;2022-12-15T02:18:04;-2.50;99.90
42095;DHT22;27753;55.724;37.612;2022-12-15T02:20:38;-2.50;99.90
42095;DHT22;27753;55.724;37.612;2022-12-15T02:31:25;-2.60;99.90
42095;DHT22;27753;55.724;37.612;2022-12-15T02:34:18;-2.60;99.90
42095;DHT22;27753;55.724;37.612;2022-12-15T02:36:53;-2.70;99.90
42095;DHT22;27753;55.724;37.612;2022-12-15T02:39:19;-2.70;99.90
42095;DHT22;27753;55.724;37.612;2022-12-15T02:41:46;-2.70;99.90
42095;DHT22;27753;55.724;37.612;2022-12-15T02:44:36;-2.70;99.90
42095;DHT22;27753;55.724;37.612;2022-12-15T02:47:30;-2.70;99.90
42095;DHT22;27753;55.724;37.612;2022-12-15T02:52:54;-2.80;99.90
42095;DHT22;27753;55.724;37.612;2022-12-15T03:03:45;-2.80;99.90
42095;DHT22;27753;55.724;37.612;2022-12-15T03:06:13;-2.70;99.90
42095;DHT22;27753;55.724;37.612;2022-12-15T03:08:39;-2.70;99.90
42095;DHT22;27753;55.724;37.612;2022-12-15T03:11:05;-2.70;99.90
42095;DHT22;27753;55.724;37.612;2022-12-15T03:13:31;-2.60;99.90
42095;DHT22;27753;55.724;37.612;2022-12-15T03:15:58;-2.60;99.90
42095;DHT22;27753;55.724;37.612;2022-12-15T03:18:24;-2.60;99.90
42095;DHT22;27753;55.724;37.612;2022-12-15T03:20:49;-2.60;99.90
42095;DHT22;27753;55.724;37.612;2022-12-15T03:23:15;-2.50;99.90
42095;DHT22;27753;55.724;37.612;2022-12-15T03:25:43;-2.50;99.90
42095;DHT22;27753;55.724;37.612;2022-12-15T03:28:09;-2.50;99.90
42095;DHT22;27753;55.724;37.612;2022-12-15T03:30:35;-2.60;99.90
42095;DHT22;27753;55.724;37.612;2022-12-15T03:33:01;-2.60;99.90
42095;DHT22;27753;55.724;37.612;2022-12-15T03:35:27;-2.50;99.90
42095;DHT22;27753;55.724;37.612;2022-12-15T03:37:52;-2.50;99.90
42095;DHT22;27753;55.724;37.612;2022-12-15T03:40:18;-2.40;99.90
42095;DHT22;27753;55.724;37.612;2022-12-15T03:42:46;-2.40;99.90
42095;DHT22;27753;55.724;37.612;2022-12-15T03:45:21;-2.40;99.90
42095;DHT22;27753;55.724;37.612;2022-12-15T03:47:48;-2.40;99.90
42095;DHT22;27753;55.724;37.612;2022-12-15T03:50:20;-2.40;99.90
42095;DHT22;27753;55.724;37.612;2022-12-15T03:52:55;-2.40;99.90
42095;DHT22;27753;55.724;37.612;2022-12-15T03:55:21;-2.40;99.90
42095;DHT22;27753;55.724;37.612;2022-12-15T03:57:47;-2.40;99.90
42095;DHT22;27753;55.724;37.612;2022-12-15T04:00:14;-2.50;99.90
42095;DHT22;27753;55.724;37.612;2022-12-15T04:02:41;-2.50;99.90
42095;DHT22;27753;55.724;37.612;2022-12-15T04:05:07;-2.50;99.90
42095;DHT22;27753;55.724;37.612;2022-12-15T04:07:33;-2.50;99.90
42095;DHT22;27753;55.724;37.612;2022-12-15T04:09:59;-2.40;99.90
42095;DHT22;27753;55.724;37.612;2022-12-15T04:12:25;-2.40;99.90
42095;DHT22;27753;55.724;37.612;2022-12-15T04:14:51;-2.40;99.90
42095;DHT22;27753;55.724;37.612;2022-12-15T04:17:18;-2.40;99.90
42095;DHT22;27753;55.724;37.612;2022-12-15T04:19:44;-2.30;99.90
42095;DHT22;27753;55.724;37.612;2022-12-15T04:22:28;-2.30;99.90
42095;DHT22;27753;55.724;37.612;2022-12-15T04:24:54;-2.30;99.90
42095;DHT22;27753;55.724;37.612;2022-12-15T04:27:38;-2.20;99.90
42095;DHT22;27753;55.724;37.612;2022-12-15T04:30:22;-2.20;99.90
42095;DHT22;27753;55.724;37.612;2022-12-15T04:33:07;-2.20;99.90
42095;DHT22;27753;55.724;37.612;2022-12-15T04:35:52;-2.20;99.90
42095;DHT22;27753;55.724;37.612;2022-12-15T04:38:36;-2.10;99.90
42095;DHT22;27753;55.724;37.612;2022-12-15T04:41:22;-2.20;99.90
42095;DHT22;27753;55.724;37.612;2022-12-15T04:44:07;-2.20;99.90
42095;DHT22;27753;55.724;37.612;2022-12-15T04:46:53;-2.20;99.90
42095;DHT22;27753;55.724;37.612;2022-12-15T04:49:37;-2.20;99.90
42095;DHT22;27753;55.724;37.612;2022-12-15T04:52:21;-2.20;99.90
42095;DHT22;27753;55.724;37.612;2022-12-15T04:55:05;-2.20;99.90
42095;DHT22;27753;55.724;37.612;2022-12-15T04:57:49;-2.20;99.90
42095;DHT22;27753;55.724;37.612;2022-12-15T05:00:35;-2.10;99.90
42095;DHT22;27753;55.724;37.612;2022-12-15T05:03:19;-2.10;99.90
42095;DHT22;27753;55.724;37.612;2022-12-15T05:06:03;-2.10;99.90
42095;DHT22;27753;55.724;37.612;2022-12-15T05:08:47;-2.00;99.90
42095;DHT22;27753;55.724;37.612;2022-12-15T05:11:31;-2.00;99.90
42095;DHT22;27753;55.724;37.612;2022-12-15T05:14:16;-2.00;99.90
42095;DHT22;27753;55.724;37.612;2022-12-15T05:17:00;-2.10;99.90
42095;DHT22;27753;55.724;37.612;2022-12-15T05:19:44;-2.10;99.90
42095;DHT22;27753;55.724;37.612;2022-12-15T05:22:28;-2.10;99.90
42095;DHT22;27753;55.724;37.612;2022-12-15T05:25:12;-2.20;99.90
42095;DHT22;27753;55.724;37.612;2022-12-15T05:28:14;-2.20;99.90
42095;DHT22;27753;55.724;37.612;2022-12-15T05:30:59;-2.20;99.90
42095;DHT22;27753;55.724;37.612;2022-12-15T05:33:43;-2.20;99.90
42095;DHT22;27753;55.724;37.612;2022-12-15T05:36:09;-2.20;99.90
42095;DHT22;27753;55.724;37.612;2022-12-15T05:38:35;-2.20;99.90
42095;DHT22;27753;55.724;37.612;2022-12-15T05:41:01;-2.20;99.90
42095;DHT22;27753;55.724;37.612;2022-12-15T05:43:27;-2.10;99.90
42095;DHT22;27753;55.724;37.612;2022-12-15T05:45:53;-2.10;99.90
42095;DHT22;27753;55.724;37.612;2022-12-15T05:48:19;-2.20;99.90
42095;DHT22;27753;55.724;37.612;2022-12-15T05:50:45;-2.20;99.90
42095;DHT22;27753;55.724;37.612;2022-12-15T05:53:10;-2.20;99.90
42095;DHT22;27753;55.724;37.612;2022-12-15T05:55:36;-2.30;99.90
42095;DHT22;27753;55.724;37.612;2022-12-15T05:58:02;-2.30;99.90
42095;DHT22;27753;55.724;37.612;2022-12-15T06:00:28;-2.30;99.90
42095;DHT22;27753;55.724;37.612;2022-12-15T06:02:54;-2.40;99.90
42095;DHT22;27753;55.724;37.612;2022-12-15T06:05:19;-2.40;99.90
42095;DHT22;27753;55.724;37.612;2022-12-15T06:07:45;-2.50;99.90
42095;DHT22;27753;55.724;37.612;2022-12-15T06:10:11;-2.60;99.90
42095;DHT22;27753;55.724;37.612;2022-12-15T06:12:37;-2.70;99.90
42095;DHT22;27753;55.724;37.612;2022-12-15T06:15:03;-2.80;99.90
42095;DHT22;27753;55.724;37.612;2022-12-15T06:17:30;-2.90;99.90
42095;DHT22;27753;55.724;37.612;2022-12-15T06:19:56;-3.10;99.90
42095;DHT22;27753;55.724;37.612;2022-12-15T06:22:22;-3.30;99.90
42095;DHT22;27753;55.724;37.612;2022-12-15T06:24:48;-3.50;99.90
42095;DHT22;27753;55.724;37.612;2022-12-15T06:27:14;-3.60;99.90
42095;DHT22;27753;55.724;37.612;2022-12-15T06:29:40;-3.70;99.90
42095;DHT22;27753;55.724;37.612;2022-12-15T06:32:05;-3.70;99.90
42095;DHT22;27753;55.724;37.612;2022-12-15T06:34:31;-3.80;99.90
42095;DHT22;27753;55.724;37.612;2022-12-15T06:37:00;-3.80;99.90
42095;DHT22;27753;55.724;37.612;2022-12-15T06:39:26;-3.90;99.90
42095;DHT22;27753;55.724;37.612;2022-12-15T06:41:52;-3.90;99.90
42095;DHT22;27753;55.724;37.612;2022-12-15T06:44:18;-3.90;99.90
42095;DHT22;27753;55.724;37.612;2022-12-15T06:46:44;-3.80;99.90
42095;DHT22;27753;55.724;37.612;2022-12-15T06:49:10;-3.70;99.90
42095;DHT22;27753;55.724;37.612;2022-12-15T06:51:37;-3.70;99.90
42095;DHT22;27753;55.724;37.612;2022-12-15T06:54:05;-3.70;99.90
42095;DHT22;27753;55.724;37.612;2022-12-15T06:56:34;-3.70;99.90
42095;DHT22;27753;55.724;37.612;2022-12-15T06:59:07;-3.80;99.90
42095;DHT22;27753;55.724;37.612;2022-12-15T07:01:33;-3.90;99.90
42095;DHT22;27753;55.724;37.612;2022-12-15T07:04:02;-4.10;99.90
42095;DHT22;27753;55.724;37.612;2022-12-15T07:06:37;-4.20;99.90
42095;DHT22;27753;55.724;37.612;2022-12-15T07:09:05;-4.20;99.90
42095;DHT22;27753;55.724;37.612;2022-12-15T07:11:35;-4.30;99.90
42095;DHT22;27753;55.724;37.612;2022-12-15T07:14:01;-4.50;99.90
42095;DHT22;27753;55.724;37.612;2022-12-15T07:16:27;-4.60;99.90
42095;DHT22;27753;55.724;37.612;2022-12-15T07:18:53;-4.70;99.90
42095;DHT22;27753;55.724;37.612;2022-12-15T07:21:19;-4.70;99.90
42095;DHT22;27753;55.724;37.612;2022-12-15T07:23:45;-4.80;99.90
42095;DHT22;27753;55.724;37.612;2022-12-15T07:26:11;-4.90;99.90
42095;DHT22;27753;55.724;37.612;2022-12-15T07:28:40;-4.90;99.90
42095;DHT22;27753;55.724;37.612;2022-12-15T07:31:08;-4.80;99.90
42095;DHT22;27753;55.724;37.612;2022-12-15T07:33:36;-4.80;99.90
42095;DHT22;27753;55.724;37.612;2022-12-15T07:36:03;-4.70;99.90
42095;DHT22;27753;55.724;37.612;2022-12-15T07:38:30;-4.80;99.90
42095;DHT22;27753;55.724;37.612;2022-12-15T07:41:03;-4.90;99.90
42095;DHT22;27753;55.724;37.612;2022-12-15T07:43:29;-4.90;99.90
42095;DHT22;27753;55.724;37.612;2022-12-15T07:45:55;-4.90;99.90
42095;DHT22;27753;55.724;37.612;2022-12-15T07:48:24;-4.90;99.90
42095;DHT22;27753;55.724;37.612;2022-12-15T07:51:12;-5.00;99.90
42095;DHT22;27753;55.724;37.612;2022-12-15T07:53:44;-5.00;99.90
42095;DHT22;27753;55.724;37.612;2022-12-15T07:56:12;-5.10;99.90
42095;DHT22;27753;55.724;37.612;2022-12-15T07:58:41;-5.10;99.90
42095;DHT22;27753;55.724;37.612;2022-12-15T08:01:10;-5.10;99.90
42095;DHT22;27753;55.724;37.612;2022-12-15T08:03:40;-5.00;99.90
42095;DHT22;27753;55.724;37.612;2022-12-15T08:06:18;-4.90;99.90
42095;DHT22;27753;55.724;37.612;2022-12-15T08:08:44;-4.90;99.90
42095;DHT22;27753;55.724;37.612;2022-12-15T08:11:12;-4.80;99.90
42095;DHT22;27753;55.724;37.612;2022-12-15T08:13:42;-4.80;99.90
42095;DHT22;27753;55.724;37.612;2022-12-15T08:16:11;-4.80;99.90
42095;DHT22;27753;55.724;37.612;2022-12-15T08:18:39;-4.70;99.90
42095;DHT22;27753;55.724;37.612;2022-12-15T08:21:07;-4.70;99.90
42095;DHT22;27753;55.724;37.612;2022-12-15T08:23:34;-4.90;99.90
42095;DHT22;27753;55.724;37.612;2022-12-15T08:26:05;-4.90;99.90
42095;DHT22;27753;55.724;37.612;2022-12-15T08:28:33;-4.80;99.90
42095;DHT22;27753;55.724;37.612;2022-12-15T08:31:04;-4.90;99.90
42095;DHT22;27753;55.724;37.612;2022-12-15T08:33:31;-4.90;99.90
42095;DHT22;27753;55.724;37.612;2022-12-15T08:35:58;-4.80;99.90
42095;DHT22;27753;55.724;37.612;2022-12-15T08:38:24;-4.70;99.90
42095;DHT22;27753;55.724;37.612;2022-12-15T08:40:50;-4.60;99.90
42095;DHT22;27753;55.724;37.612;2022-12-15T08:43:16;-4.50;99.90
42095;DHT22;27753;55.724;37.612;2022-12-15T08:45:42;-4.40;99.90
42095;DHT22;27753;55.724;37.612;2022-12-15T08:48:08;-4.30;99.90
42095;DHT22;27753;55.724;37.612;2022-12-15T08:50:34;-4.20;99.90
42095;DHT22;27753;55.724;37.612;2022-12-15T08:53:00;-4.20;99.90
42095;DHT22;27753;55.724;37.612;2022-12-15T08:55:26;-4.10;99.90
42095;DHT22;27753;55.724;37.612;2022-12-15T08:57:53;-4.10;99.90
42095;DHT22;27753;55.724;37.612;2022-12-15T09:00:19;-4.00;99.90
42095;DHT22;27753;55.724;37.612;2022-12-15T09:02:45;-4.00;99.90
42095;DHT22;27753;55.724;37.612;2022-12-15T09:05:10;-4.00;99.90
42095;DHT22;27753;55.724;37.612;2022-12-15T09:07:36;-4.00;99.90
42095;DHT22;27753;55.724;37.612;2022-12-15T09:10:02;-4.00;99.90
42095;DHT22;27753;55.724;37.612;2022-12-15T09:12:28;-4.00;99.90
42095;DHT22;27753;55.724;37.612;2022-12-15T09:14:54;-4.00;99.90
42095;DHT22;27753;55.724;37.612;2022-12-15T09:17:20;-3.90;99.90
42095;DHT22;27753;55.724;37.612;2022-12-15T09:19:46;-3.90;99.90
42095;DHT22;27753;55.724;37.612;2022-12-15T09:22:11;-3.80;99.90
42095;DHT22;27753;55.724;37.612;2022-12-15T09:24:37;-3.70;99.90
42095;DHT22;27753;55.724;37.612;2022-12-15T09:27:09;-3.70;99.90
42095;DHT22;27753;55.724;37.612;2022-12-15T09:29:35;-3.70;99.90
42095;DHT22;27753;55.724;37.612;2022-12-15T09:32:01;-3.70;99.90
42095;DHT22;27753;55.724;37.612;2022-12-15T09:34:28;-3.70;99.90
42095;DHT22;27753;55.724;37.612;2022-12-15T09:36:54;-3.70;99.90
42095;DHT22;27753;55.724;37.612;2022-12-15T09:39:21;-3.70;99.90
42095;DHT22;27753;55.724;37.612;2022-12-15T09:41:52;-3.80;99.90
42095;DHT22;27753;55.724;37.612;2022-12-15T09:44:20;-3.90;99.90
42095;DHT22;27753;55.724;37.612;2022-12-15T09:46:54;-3.90;99.90
42095;DHT22;27753;55.724;37.612;2022-12-15T09:49:34;-3.90;99.90
42095;DHT22;27753;55.724;37.612;2022-12-15T09:52:10;-3.80;99.90
42095;DHT22;27753;55.724;37.612;2022-12-15T09:54:37;-3.80;99.90
42095;DHT22;27753;55.724;37.612;2022-12-15T09:57:22;-3.80;99.90
42095;DHT22;27753;55.724;37.612;2022-12-15T10:02:50;-4.00;99.90
42095;DHT22;27753;55.724;37.612;2022-12-15T10:08:04;-3.90;99.90
42095;DHT22;27753;55.724;37.612;2022-12-15T10:10:58;-3.90;99.90
42095;DHT22;27753;55.724;37.612;2022-12-15T10:13:52;-3.90;99.90
42095;DHT22;27753;55.724;37.612;2022-12-15T10:16:49;-4.00;99.90
42095;DHT22;27753;55.724;37.612;2022-12-15T10:21:47;-3.80;99.90
42095;DHT22;27753;55.724;37.612;2022-12-15T10:24:20;-3.80;99.90
42095;DHT22;27753;55.724;37.612;2022-12-15T10:27:01;-3.80;99.90
42095;DHT22;27753;55.724;37.612;2022-12-15T10:32:19;-3.90;99.90
42095;DHT22;27753;55.724;37.612;2022-12-15T10:34:48;-3.80;99.90
42095;DHT22;27753;55.724;37.612;2022-12-15T10:37:18;-3.70;99.90
42095;DHT22;27753;55.724;37.612;2022-12-15T10:39:47;-3.70;99.90
42095;DHT22;27753;55.724;37.612;2022-12-15T10:42:24;-3.70;99.90
42095;DHT22;27753;55.724;37.612;2022-12-15T10:44:54;-3.70;99.90
42095;DHT22;27753;55.724;37.612;2022-12-15T10:47:23;-3.70;99.90
42095;DHT22;27753;55.724;37.612;2022-12-15T10:49:51;-3.70;99.90
42095;DHT22;27753;55.724;37.612;2022-12-15T10:52:22;-3.70;99.90
42095;DHT22;27753;55.724;37.612;2022-12-15T10:54:52;-3.70;99.90
42095;DHT22;27753;55.724;37.612;2022-12-15T10:57:25;-3.60;99.90
42095;DHT22;27753;55.724;37.612;2022-12-15T11:02:37;-3.40;99.90
42095;DHT22;27753;55.724;37.612;2022-12-15T11:07:53;-3.20;99.90
42095;DHT22;27753;55.724;37.612;2022-12-15T11:10:51;-3.20;99.90
42095;DHT22;27753;55.724;37.612;2022-12-15T11:13:39;-3.30;99.90
42095;DHT22;27753;55.724;37.612;2022-12-15T11:16:16;-3.40;99.90
42095;DHT22;27753;55.724;37.612;2022-12-15T11:21:29;-3.70;99.90
42095;DHT22;27753;55.724;37.612;2022-12-15T11:26:49;-4.10;99.90
42095;DHT22;27753;55.724;37.612;2022-12-15T11:31:49;-4.30;99.90
42095;DHT22;27753;55.724;37.612;2022-12-15T11:34:24;-4.30;99.90
42095;DHT22;27753;55.724;37.612;2022-12-15T11:48:13;-4.40;99.90
42095;DHT22;27753;55.724;37.612;2022-12-15T11:50:50;-4.30;99.90
42095;DHT22;27753;55.724;37.612;2022-12-15T11:56:32;-4.20;99.90
42095;DHT22;27753;55.724;37.612;2022-12-15T11:59:31;-4.20;99.90
42095;DHT22;27753;55.724;37.612;2022-12-15T12:07:43;-3.90;99.90
42095;DHT22;27753;55.724;37.612;2022-12-15T12:10:30;-3.80;99.90
42095;DHT22;27753;55.724;37.612;2022-12-15T12:18:38;-3.80;99.90
42095;DHT22;27753;55.724;37.612;2022-12-15T12:21:08;-3.80;99.90
42095;DHT22;27753;55.724;37.612;2022-12-15T12:27:07;-3.80;99.90
42095;DHT22;27753;55.724;37.612;2022-12-15T12:29:46;-3.70;99.90
42095;DHT22;27753;55.724;37.612;2022-12-15T12:37:50;-3.80;99.90
42095;DHT22;27753;55.724;37.612;2022-12-15T12:40:18;-3.80;99.90
42095;DHT22;27753;55.724;37.612;2022-12-15T12:42:55;-3.90;99.90
42095;DHT22;27753;55.724;37.612;2022-12-15T12:51:04;-3.90;99.90
42095;DHT22;27753;55.724;37.612;2022-12-15T12:53:33;-3.90;99.90
42095;DHT22;27753;55.724;37.612;2022-12-15T12:55:59;-3.90;99.90
42095;DHT22;27753;55.724;37.612;2022-12-15T12:58:49;-3.80;99.90
42095;DHT22;27753;55.724;37.612;2022-12-15T13:01:18;-3.70;99.90
42095;DHT22;27753;55.724;37.612;2022-12-15T13:04:05;-3.70;99.90
42095;DHT22;27753;55.724;37.612;2022-12-15T13:22:33;-3.60;99.90
42095;DHT22;27753;55.724;37.612;2022-12-15T13:25:01;-3.50;99.90
42095;DHT22;27753;55.724;37.612;2022-12-15T13:27:34;-3.50;99.90
42095;DHT22;27753;55.724;37.612;2022-12-15T13:30:13;-3.50;99.90
42095;DHT22;27753;55.724;37.612;2022-12-15T13:33:13;-3.50;99.90
42095;DHT22;27753;55.724;37.612;2022-12-15T13:35:41;-3.40;99.90
42095;DHT22;27753;55.724;37.612;2022-12-15T13:38:16;-3.50;99.90
42095;DHT22;27753;55.724;37.612;2022-12-15T13:40:52;-3.50;99.90
42095;DHT22;27753;55.724;37.612;2022-12-15T13:46:10;-3.50;99.90
42095;DHT22;27753;55.724;37.612;2022-12-15T13:48:43;-3.50;99.90
42095;DHT22;27753;55.724;37.612;2022-12-15T13:54:20;-3.50;99.90
42095;DHT22;27753;55.724;37.612;2022-12-15T13:56:50;-3.50;99.90
42095;DHT22;27753;55.724;37.612;2022-12-15T14:02:19;-3.50;99.90
42095;DHT22;27753;55.724;37.612;2022-12-15T14:07:34;-3.50;99.90
42095;DHT22;27753;55.724;37.612;2022-12-15T14:10:03;-3.50;99.90
42095;DHT22;27753;55.724;37.612;2022-12-15T14:12:31;-3.50;99.90
42095;DHT22;27753;55.724;37.612;2022-12-15T14:15:00;-3.50;99.90
42095;DHT22;27753;55.724;37.612;2022-12-15T14:17:27;-3.60;99.90
42095;DHT22;27753;55.724;37.612;2022-12-15T14:19:57;-3.60;99.90
42095;DHT22;27753;55.724;37.612;2022-12-15T14:22:35;-3.60;99.90
42095;DHT22;27753;55.724;37.612;2022-12-15T14:25:19;-3.60;99.90
42095;DHT22;27753;55.724;37.612;2022-12-15T14:27:49;-3.70;99.90
42095;DHT22;27753;55.724;37.612;2022-12-15T14:30:20;-3.70;99.90
42095;DHT22;27753;55.724;37.612;2022-12-15T14:32:51;-3.80;99.90
42095;DHT22;27753;55.724;37.612;2022-12-15T14:35:31;-3.80;99.90
42095;DHT22;27753;55.724;37.612;2022-12-15T14:38:12;-3.80;99.90
42095;DHT22;27753;55.724;37.612;2022-12-15T14:40:40;-3.80;99.90
42095;DHT22;27753;55.724;37.612;2022-12-15T14:43:25;-4.00;99.90
42095;DHT22;27753;55.724;37.612;2022-12-15T14:46:10;-4.20;99.90
42095;DHT22;27753;55.724;37.612;2022-12-15T14:49:02;-4.30;99.90
42095;DHT22;27753;55.724;37.612;2022-12-15T14:51:31;-4.40;99.90
42095;DHT22;27753;55.724;37.612;2022-12-15T14:54:03;-4.40;99.90
42095;DHT22;27753;55.724;37.612;2022-12-15T14:56:34;-4.50;99.90
42095;DHT22;27753;55.724;37.612;2022-12-15T15:02:23;-4.50;99.90
42095;DHT22;27753;55.724;37.612;2022-12-15T15:04:58;-4.60;99.90
42095;DHT22;27753;55.724;37.612;2022-12-15T15:07:34;-4.60;99.90
42095;DHT22;27753;55.724;37.612;2022-12-15T15:10:19;-4.60;99.90
42095;DHT22;27753;55.724;37.612;2022-12-15T15:12:47;-4.60;99.90
42095;DHT22;27753;55.724;37.612;2022-12-15T15:15:18;-4.50;99.90
42095;DHT22;27753;55.724;37.612;2022-12-15T15:17:56;-4.50;99.90
42095;DHT22;27753;55.724;37.612;2022-12-15T15:20:30;-4.60;99.90
42095;DHT22;27753;55.724;37.612;2022-12-15T15:23:12;-4.60;99.90
42095;DHT22;27753;55.724;37.612;2022-12-15T15:25:51;-4.60;99.90
42095;DHT22;27753;55.724;37.612;2022-12-15T15:30:54;-4.50;99.90
42095;DHT22;27753;55.724;37.612;2022-12-15T15:33:21;-4.50;99.90
42095;DHT22;27753;55.724;37.612;2022-12-15T15:35:52;-4.60;99.90
42095;DHT22;27753;55.724;37.612;2022-12-15T15:40:57;-4.60;99.90
42095;DHT22;27753;55.724;37.612;2022-12-15T15:43:28;-4.50;99.90
42095;DHT22;27753;55.724;37.612;2022-12-15T15:46:18;-4.60;99.90
42095;DHT22;27753;55.724;37.612;2022-12-15T15:48:49;-4.60;99.90
42095;DHT22;27753;55.724;37.612;2022-12-15T15:51:16;-4.50;99.90
42095;DHT22;27753;55.724;37.612;2022-12-15T15:53:42;-4.50;99.90
42095;DHT22;27753;55.724;37.612;2022-12-15T15:56:12;-4.50;99.90
42095;DHT22;27753;55.724;37.612;2022-12-15T15:58:44;-4.40;99.90
42095;DHT22;27753;55.724;37.612;2022-12-15T16:01:11;-4.40;99.90
42095;DHT22;27753;55.724;37.612;2022-12-15T16:03:46;-4.40;99.90
42095;DHT22;27753;55.724;37.612;2022-12-15T16:06:17;-4.40;99.90
42095;DHT22;27753;55.724;37.612;2022-12-15T16:08:48;-4.40;99.90
42095;DHT22;27753;55.724;37.612;2022-12-15T16:11:17;-4.40;99.90
42095;DHT22;27753;55.724;37.612;2022-12-15T16:13:46;-4.40;99.90
42095;DHT22;27753;55.724;37.612;2022-12-15T16:16:18;-4.40;99.90
42095;DHT22;27753;55.724;37.612;2022-12-15T16:18:44;-4.50;99.90
42095;DHT22;27753;55.724;37.612;2022-12-15T16:21:14;-4.60;99.90
42095;DHT22;27753;55.724;37.612;2022-12-15T16:23:48;-4.60;99.90
42095;DHT22;27753;55.724;37.612;2022-12-15T16:26:19;-4.60;99.90
42095;DHT22;27753;55.724;37.612;2022-12-15T16:28:49;-4.60;99.90
42095;DHT22;27753;55.724;37.612;2022-12-15T16:31:34;-4.60;99.90
42095;DHT22;27753;55.724;37.612;2022-12-15T16:34:04;-4.60;99.90
42095;DHT22;27753;55.724;37.612;2022-12-15T16:36:32;-4.70;99.90
42095;DHT22;27753;55.724;37.612;2022-12-15T16:38:59;-4.70;99.90
42095;DHT22;27753;55.724;37.612;2022-12-15T16:41:25;-4.70;99.90
42095;DHT22;27753;55.724;37.612;2022-12-15T16:43:54;-4.70;99.90
42095;DHT22;27753;55.724;37.612;2022-12-15T16:46:20;-4.80;99.90
42095;DHT22;27753;55.724;37.612;2022-12-15T16:48:46;-4.70;99.90
42095;DHT22;27753;55.724;37.612;2022-12-15T16:51:43;-4.70;99.90
42095;DHT22;27753;55.724;37.612;2022-12-15T16:54:20;-4.70;99.90
42095;DHT22;27753;55.724;37.612;2022-12-15T16:56:47;-4.60;99.90
42095;DHT22;27753;55.724;37.612;2022-12-15T16:59:16;-4.60;99.90
42095;DHT22;27753;55.724;37.612;2022-12-15T17:01:48;-4.50;99.90
42095;DHT22;27753;55.724;37.612;2022-12-15T17:04:14;-4.50;99.90
42095;DHT22;27753;55.724;37.612;2022-12-15T17:06:41;-4.50;99.90
42095;DHT22;27753;55.724;37.612;2022-12-15T17:09:19;-4.50;99.90
42095;DHT22;27753;55.724;37.612;2022-12-15T17:11:47;-4.50;99.90
42095;DHT22;27753;55.724;37.612;2022-12-15T17:14:12;-4.50;99.90
42095;DHT22;27753;55.724;37.612;2022-12-15T17:16:39;-4.60;99.90
42095;DHT22;27753;55.724;37.612;2022-12-15T17:19:04;-4.60;99.90
42095;DHT22;27753;55.724;37.612;2022-12-15T17:21:46;-4.60;99.90
42095;DHT22;27753;55.724;37.612;2022-12-15T17:24:15;-4.60;99.90
42095;DHT22;27753;55.724;37.612;2022-12-15T17:27:05;-4.60;99.90
42095;DHT22;27753;55.724;37.612;2022-12-15T17:29:51;-4.60;99.90
42095;DHT22;27753;55.724;37.612;2022-12-15T17:32:20;-4.60;99.90
42095;DHT22;27753;55.724;37.612;2022-12-15T17:34:51;-4.60;99.90
42095;DHT22;27753;55.724;37.612;2022-12-15T17:37:19;-4.50;99.90
42095;DHT22;27753;55.724;37.612;2022-12-15T17:39:48;-4.50;99.90
42095;DHT22;27753;55.724;37.612;2022-12-15T17:42:31;-4.50;99.90
42095;DHT22;27753;55.724;37.612;2022-12-15T17:45:35;-4.50;99.90
42095;DHT22;27753;55.724;37.612;2022-12-15T17:48:04;-4.50;99.90
42095;DHT22;27753;55.724;37.612;2022-12-15T17:50:31;-4.50;99.90
42095;DHT22;27753;55.724;37.612;2022-12-15T17:52:57;-4.40;99.90